American Glory — WDA8860 — position and weather

sailwx.info

Track history (hours):
 
Tides and Currents Weather Stations Pressure Air Temp Water Temp Dewpoint Dewpoint Depression Visibility Wind Speed Wind Dir Waves Ship Positions

American Glory

Owner: AMERICAN CRUISE LINES INC, DELMAR, DE. More information available from US FCC via Universal Licensing System and Coast Guard Vessel Documentation Center.

Last reported at 2016-May-01 02:27 UTC. Time now 2016-May-02 05:52 UTC.
Position N 38°07' W 076°16'.

Length 54 m; draft 2.1 m.

Type: Ship. MMSI: 366858820.

Date/timePositionNaut miles runAvg speedWind from/ knotsBaromVisibWave heightAir tempDewpointWater temp
2016-May-01 02:27N 38°07' W 076°16'51 8.0
2016-Apr-30 20:07N 38°57' W 076°24'5 8.5
2016-Apr-30 19:33N 39°02' W 076°23'10 8.1
2016-Apr-30 18:22N 39°11' W 076°27'7 8.2
2016-Apr-30 17:32N 39°15' W 076°34'3 2.9
2016-Apr-30 16:31N 39°17' W 076°37'0 0.0
2016-Apr-30 15:31N 39°17' W 076°37'0 0.0
2016-Apr-30 14:31N 39°17' W 076°37'0 0.0
2016-Apr-30 13:31N 39°17' W 076°37'0 0.0
2016-Apr-30 12:32N 39°17' W 076°37'0 0.0
2016-Apr-30 11:32N 39°17' W 076°37'0 0.0
2016-Apr-30 10:29N 39°17' W 076°37'0 0.0
2016-Apr-30 09:29N 39°17' W 076°37'0 0.0
2016-Apr-30 08:32N 39°17' W 076°37'0 0.0
2016-Apr-30 07:32N 39°17' W 076°37'0 0.0
2016-Apr-30 06:32N 39°17' W 076°37'0 0.0
2016-Apr-30 05:32N 39°17' W 076°37'0 0.0
2016-Apr-30 04:32N 39°17' W 076°37'0 0.0
2016-Apr-30 03:32N 39°17' W 076°37'0 0.0
2016-Apr-30 02:32N 39°17' W 076°37'0 0.0
2016-Apr-30 01:32N 39°17' W 076°37'0 0.0
2016-Apr-30 00:32N 39°17' W 076°37'0 0.0
2016-Apr-29 23:32N 39°17' W 076°37'0 0.0
2016-Apr-29 22:32N 39°17' W 076°37'0 0.0
2016-Apr-29 21:32N 39°17' W 076°37'0 0.0
2016-Apr-29 20:32N 39°17' W 076°37'0 0.0
2016-Apr-29 19:32N 39°17' W 076°37'0 0.0
2016-Apr-29 18:32N 39°17' W 076°37'0 0.0
2016-Apr-29 17:32N 39°17' W 076°37'0 0.0
2016-Apr-29 16:31N 39°17' W 076°37'0 0.0
2016-Apr-29 15:31N 39°17' W 076°37'5 5.5
2016-Apr-29 14:33N 39°13' W 076°32'9 9.5
2016-Apr-29 13:33N 39°06' W 076°24'9 9.4
2016-Apr-29 12:33N 38°57' W 076°24'126 8.4
2016-Apr-28 21:32N 36°51' W 076°19'1 1.1
2016-Apr-28 20:32N 36°51' W 076°18'0 0.0
2016-Apr-28 19:32N 36°51' W 076°18'0 0.0
2016-Apr-28 18:32N 36°51' W 076°18'0 0.0
2016-Apr-28 17:32N 36°51' W 076°18'0 0.0
2016-Apr-28 16:32N 36°51' W 076°18'0 0.0
2016-Apr-28 15:32N 36°51' W 076°18'0 0.0
2016-Apr-28 14:32N 36°51' W 076°18'0 0.0
2016-Apr-28 13:32N 36°51' W 076°18'0 0.0
2016-Apr-28 12:32N 36°51' W 076°18'0 0.0
2016-Apr-28 11:32N 36°51' W 076°18'0 0.0
2016-Apr-28 10:32N 36°51' W 076°18'0 0.0
2016-Apr-28 09:32N 36°51' W 076°18'0 0.0
2016-Apr-28 08:32N 36°51' W 076°18'0 0.0
2016-Apr-28 07:32N 36°51' W 076°18'58 2.7
2016-Apr-27 10:24N 35°55' W 076°00'8 8.8
2016-Apr-27 09:32N 35°47' W 076°01'62 6.1
2016-Apr-26 23:26N 34°54' W 076°40'6 7.3
2016-Apr-26 22:33N 34°48' W 076°41'6 5.6
2016-Apr-26 21:33N 34°42' W 076°41'0 0.0
2016-Apr-26 20:33N 34°42' W 076°41'0 0.0
2016-Apr-26 19:33N 34°42' W 076°41'0 0.0
2016-Apr-26 18:33N 34°42' W 076°41'0 0.0
2016-Apr-26 17:33N 34°42' W 076°41'0 0.0
2016-Apr-26 16:33N 34°42' W 076°41'0 0.0
2016-Apr-26 15:33N 34°42' W 076°41'0 0.0
2016-Apr-26 14:33N 34°42' W 076°41'0 0.0
2016-Apr-26 13:33N 34°42' W 076°41'0 0.0
2016-Apr-26 12:33N 34°42' W 076°41'0 0.1
2016-Apr-26 11:33N 34°42' W 076°41'0 0.0
2016-Apr-26 10:33N 34°42' W 076°41'6 6.1
2016-Apr-26 09:34N 34°38' W 076°46'10 9.4
2016-Apr-26 08:33N 34°37' W 076°58'  
2016-Apr-21 17:22N 32°15' W 080°45'5 6.3
2016-Apr-21 16:33N 32°10' W 080°48'2 0.6
2016-Apr-21 13:15N 32°09' W 080°49'0 0.0
2016-Apr-21 12:33N 32°09' W 080°49'5 4.8
2016-Apr-21 11:33N 32°06' W 080°54'6 6.5
2016-Apr-21 10:33N 32°05' W 081°01'4 3.5
2016-Apr-21 09:33N 32°05' W 081°06'0 0.0
2016-Apr-21 08:33N 32°05' W 081°06'0 0.0
2016-Apr-21 07:33N 32°05' W 081°06'0 0.0
2016-Apr-21 06:33N 32°05' W 081°06'0 0.0
2016-Apr-21 05:33N 32°05' W 081°06'0 0.0
2016-Apr-21 04:33N 32°05' W 081°06'0 0.0
2016-Apr-21 03:33N 32°05' W 081°06'0 0.0
2016-Apr-21 02:33N 32°05' W 081°06'  
Track history (hours):
 
Tides and Currents Weather Stations Pressure Air Temp Water Temp Dewpoint Dewpoint Depression Visibility Wind Speed Wind Dir Waves Ship Positions

American Glory

Owner: AMERICAN CRUISE LINES INC, DELMAR, DE. More information available from US FCC via Universal Licensing System and Coast Guard Vessel Documentation Center.

Last reported at 2016-May-01 02:27 UTC. Time now 2016-May-02 05:52 UTC.
Position N 38°07' W 076°16'.

Length 54 m; draft 2.1 m.

Type: Ship. MMSI: 366858820.

Date/timePositionNaut miles runAvg speedWind from/ knotsBaromVisibWave heightAir tempDewpointWater temp
2016-May-01 02:27N 38°07' W 076°16'51 8.0
2016-Apr-30 20:07N 38°57' W 076°24'5 8.5
2016-Apr-30 19:33N 39°02' W 076°23'10 8.1
2016-Apr-30 18:22N 39°11' W 076°27'7 8.2
2016-Apr-30 17:32N 39°15' W 076°34'3 2.9
2016-Apr-30 16:31N 39°17' W 076°37'0 0.0
2016-Apr-30 15:31N 39°17' W 076°37'0 0.0
2016-Apr-30 14:31N 39°17' W 076°37'0 0.0
2016-Apr-30 13:31N 39°17' W 076°37'0 0.0
2016-Apr-30 12:32N 39°17' W 076°37'0 0.0
2016-Apr-30 11:32N 39°17' W 076°37'0 0.0
2016-Apr-30 10:29N 39°17' W 076°37'0 0.0
2016-Apr-30 09:29N 39°17' W 076°37'0 0.0
2016-Apr-30 08:32N 39°17' W 076°37'0 0.0
2016-Apr-30 07:32N 39°17' W 076°37'0 0.0
2016-Apr-30 06:32N 39°17' W 076°37'0 0.0
2016-Apr-30 05:32N 39°17' W 076°37'0 0.0
2016-Apr-30 04:32N 39°17' W 076°37'0 0.0
2016-Apr-30 03:32N 39°17' W 076°37'0 0.0
2016-Apr-30 02:32N 39°17' W 076°37'0 0.0
2016-Apr-30 01:32N 39°17' W 076°37'0 0.0
2016-Apr-30 00:32N 39°17' W 076°37'0 0.0
2016-Apr-29 23:32N 39°17' W 076°37'0 0.0
2016-Apr-29 22:32N 39°17' W 076°37'0 0.0
2016-Apr-29 21:32N 39°17' W 076°37'0 0.0
2016-Apr-29 20:32N 39°17' W 076°37'0 0.0
2016-Apr-29 19:32N 39°17' W 076°37'0 0.0
2016-Apr-29 18:32N 39°17' W 076°37'0 0.0
2016-Apr-29 17:32N 39°17' W 076°37'0 0.0
2016-Apr-29 16:31N 39°17' W 076°37'0 0.0
2016-Apr-29 15:31N 39°17' W 076°37'5 5.5
2016-Apr-29 14:33N 39°13' W 076°32'9 9.5
2016-Apr-29 13:33N 39°06' W 076°24'9 9.4
2016-Apr-29 12:33N 38°57' W 076°24'126 8.4
2016-Apr-28 21:32N 36°51' W 076°19'1 1.1
2016-Apr-28 20:32N 36°51' W 076°18'0 0.0
2016-Apr-28 19:32N 36°51' W 076°18'0 0.0
2016-Apr-28 18:32N 36°51' W 076°18'0 0.0
2016-Apr-28 17:32N 36°51' W 076°18'0 0.0
2016-Apr-28 16:32N 36°51' W 076°18'0 0.0
2016-Apr-28 15:32N 36°51' W 076°18'0 0.0
2016-Apr-28 14:32N 36°51' W 076°18'0 0.0
2016-Apr-28 13:32N 36°51' W 076°18'0 0.0
2016-Apr-28 12:32N 36°51' W 076°18'0 0.0
2016-Apr-28 11:32N 36°51' W 076°18'0 0.0
2016-Apr-28 10:32N 36°51' W 076°18'0 0.0
2016-Apr-28 09:32N 36°51' W 076°18'0 0.0
2016-Apr-28 08:32N 36°51' W 076°18'0 0.0
2016-Apr-28 07:32N 36°51' W 076°18'58 2.7
2016-Apr-27 10:24N 35°55' W 076°00'8 8.8
2016-Apr-27 09:32N 35°47' W 076°01'62 6.1
2016-Apr-26 23:26N 34°54' W 076°40'6 7.3
2016-Apr-26 22:33N 34°48' W 076°41'6 5.6
2016-Apr-26 21:33N 34°42' W 076°41'0 0.0
2016-Apr-26 20:33N 34°42' W 076°41'0 0.0
2016-Apr-26 19:33N 34°42' W 076°41'0 0.0
2016-Apr-26 18:33N 34°42' W 076°41'0 0.0
2016-Apr-26 17:33N 34°42' W 076°41'0 0.0
2016-Apr-26 16:33N 34°42' W 076°41'0 0.0
2016-Apr-26 15:33N 34°42' W 076°41'0 0.0
2016-Apr-26 14:33N 34°42' W 076°41'0 0.0
2016-Apr-26 13:33N 34°42' W 076°41'0 0.0
2016-Apr-26 12:33N 34°42' W 076°41'0 0.1
2016-Apr-26 11:33N 34°42' W 076°41'0 0.0
2016-Apr-26 10:33N 34°42' W 076°41'6 6.1
2016-Apr-26 09:34N 34°38' W 076°46'10 9.4
2016-Apr-26 08:33N 34°37' W 076°58'  
2016-Apr-21 17:22N 32°15' W 080°45'5 6.3
2016-Apr-21 16:33N 32°10' W 080°48'2 0.6
2016-Apr-21 13:15N 32°09' W 080°49'0 0.0
2016-Apr-21 12:33N 32°09' W 080°49'5 4.8
2016-Apr-21 11:33N 32°06' W 080°54'6 6.5
2016-Apr-21 10:33N 32°05' W 081°01'4 3.5
2016-Apr-21 09:33N 32°05' W 081°06'0 0.0
2016-Apr-21 08:33N 32°05' W 081°06'0 0.0
2016-Apr-21 07:33N 32°05' W 081°06'0 0.0
2016-Apr-21 06:33N 32°05' W 081°06'0 0.0
2016-Apr-21 05:33N 32°05' W 081°06'0 0.0
2016-Apr-21 04:33N 32°05' W 081°06'0 0.0
2016-Apr-21 03:33N 32°05' W 081°06'0 0.0
2016-Apr-21 02:33N 32°05' W 081°06'  

Dump ship's entire track history